Tiempo atmosférico en la estación meteorológica de Badajoz, Badajoz (175 m.)



Fecha
DESCASC
Temp. máxima en grados centígrados (hora)
DESCASC
Temp. mínima en grados centígrados (hora)
DESCASC
Temp. media en grados centígrados
DESCASC
Racha de viento máxima en m/sg (hora)
DESCASC
Velocidad máxima media en intervalos de 10 minutos(hora)
DESCASC
Precipitaciones diarias en mm
DESCASC
Precipitaciones de 00:00 a 06:00 en mm
DESCASC
Precipitaciones de 06:00 a 12:00 en mm
DESCASC
Precipitaciones de 12:00 a 18:00 en mm
DESCASC
Precipitaciones de 18:00 a 24:00 en mm
DESCASC
19-01-2020 14.4 (13:40) 5.8 (23:59) 10.1 23.89 (14:10) 16.39 (14:10) 0 0 0 0 0
18-01-2020 18.4 (15:00) 9.1 (00:00) 13.8 10.83 (09:40) 5.28 (09:40) 7.4 1.6 5.4 0.4 0
17-01-2020 15.7 (15:30) 8.3 (02:20) 12 5.56 (05:20) 3.33 (05:20) 0 0 0 0 0
16-01-2020 18.1 (14:40) 9.1 (00:00) 13.6 10.56 (20:50) 5.83 (21:00) 2.4 0 0 0 2.4
15-01-2020 18 (16:00) 6.1 (00:00) 12 11.11 (12:40) 5.83 (12:40) 0 0 0 0 0
14-01-2020 11.9 (17:30) 0.1 (00:00) 6 7.78 (22:50) 5 (22:50) 0 0 0 0 0
13-01-2020 13.1 (16:30) -2.3 (-00:0) 5.4 3.61 (14:30) 1.94 (17:00) 0 0 0 0 0
12-01-2020 15.4 (16:20) -2.3 (-00:0) 6.5 3.06 (14:20) 1.67 (00:50) 0 0 0 0 0
11-01-2020 14.7 (16:40) -0.4 (00:00) 7.1 5.28 (13:30) 2.78 (15:30) 0 0 0 0 0
10-01-2020 14.8 (16:10) 2.1 (00:00) 8.5 10 (12:10) 8.06 (12:10) 0 0 0 0 0
09-01-2020 14.9 (16:30) -0.3 (00:00) 7.3 5.83 (23:30) 3.61 (23:30) 0 0 0 0 0
08-01-2020 14.9 (16:50) -0.5 (-00:0) 7.2 2.22 (07:50) 1.39 (07:50) 0 0 0 0 0
07-01-2020 15.7 (16:10) 0.2 (00:00) 7.9 2.78 (12:40) 1.67 (12:40) 0 0 0 0 0
06-01-2020 15.3 (16:10) 0.2 (00:00) 7.8 2.78 (13:20) 1.67 (00:50) 0 0 0 0 0
05-01-2020 14.8 (16:10) 0.3 (00:00) 7.6 3.33 (11:50) 1.94 (01:40) 0 0 0 0 0
04-01-2020 14.1 (16:10) 2.8 (00:00) 8.5 5 (16:30) 3.33 (16:30) 0 0 0 0 0
03-01-2020 16.3 (14:50) 5.3 (00:00) 10.8 4.72 (15:20) 2.78 (15:20) 0 0 0 0 0
02-01-2020 11.5 (16:50) 1.3 (00:00) 6.4 2.78 (15:00) 1.39 (15:00) 0 0 0 0 0
01-01-2020 15.9 (16:40) 0.6 (00:00) 8.2 2.78 (12:10) 1.39 (11:50) 0 0 0 0 0
31-12-2019 15.9 (16:30) 1 (00:00) 8.4 3.33 (14:30) 1.67 (14:30) 0 0 0 0 0
30-12-2019 16.4 (16:20) 2.1 (00:00) 9.2 3.61 (12:20) 1.94 (10:30) 0 0 0 0 0
29-12-2019 18.7 (16:10) 3.6 (00:00) 11.2 5.28 (14:00) 2.78 (11:50) 0 0 0 0 0
28-12-2019 19.7 (16:00) 5.4 (00:00) 12.6 5 (20:10) 3.33 (20:00) 0 0 0 0 0
27-12-2019 19.4 (15:40) 6.3 (00:00) 12.8 5.28 (11:10) 3.61 (20:30) 0 0 0 0 0
26-12-2019 16.7 (14:50) 7.2 (00:00) 12 5 (14:20) 3.33 (14:30) 0 0 0 0 0
25-12-2019 18 (15:50) 5.6 (00:00) 11.8 3.61 (11:40) 1.94 (10:00) 0 0 0 0 0
24-12-2019 19.7 (16:00) 6.7 (00:00) 13.2 5.83 (13:30) 3.61 (12:30) 0 0 0 0 0
23-12-2019 15.4 (15:40) 8.1 (00:00) 11.8 4.44 (14:50) 2.22 (01:00) 0.2 0 0.2 0 0

Gráficas

Temp. máximas Temp. mínimas Temp. medias Precipitaciones Rachas de viento máximas Velocidades máximas media en intervalos de 10 minutos

Datos horarios

Fecha y hora oficial Temperatura (ºC) Velocidad del viento (km/h) Dirección del viento Racha (km/h) Dirección de racha Precipitación (mm) Presión (hPa) Tendencia (hPa) Humedad (%)
2020-01-21 23:00:00 8.2 12 Nordeste 21 Nordeste 0 -- -- 78
2020-01-21 22:00:00 8.3 14 Norte 23 Norte 0 -- -- 74
2020-01-21 21:00:00 8.5 16 Norte 24 Norte 0 -- -- 72
2020-01-21 20:00:00 8.9 18 Nordeste 29 Norte 0 -- -- 69
2020-01-21 19:00:00 10.6 19 Nordeste 33 Nordeste 0 -- -- 65
2020-01-21 18:00:00 11.1 22 Nordeste 40 Nordeste 0 -- -- 62
2020-01-21 17:00:00 11.8 26 Nordeste 39 Nordeste 0 -- -- 61
2020-01-21 16:00:00 12.8 22 Nordeste 37 Norte 0 -- -- 59
2020-01-21 15:00:00 12.3 16 Nordeste 35 Nordeste 0 -- -- 60
2020-01-21 14:00:00 13.8 20 Nordeste 36 Norte 0 -- -- 53
2020-01-21 13:00:00 12.6 20 Nordeste 37 Nordeste 0 -- -- 53
2020-01-21 12:00:00 10.9 26 Nordeste 35 Norte 0 -- -- 58
2020-01-21 11:00:00 8 21 Norte 32 Norte 0 -- -- 68
2020-01-21 10:00:00 5.2 14 Nordeste 30 Norte 0 -- -- 76
2020-01-21 09:00:00 3.8 22 Norte 30 Nordeste 0 -- -- 78
2020-01-21 08:00:00 4.2 17 Nordeste 27 Norte 0 -- -- 80
2020-01-21 07:00:00 3.8 11 Nordeste 26 Norte 0 -- -- 81
2020-01-21 06:00:00 5.2 18 Norte 24 Norte 0 -- -- 75
2020-01-21 05:00:00 5.7 12 Nordeste 19 Nordeste 0 -- -- 71
2020-01-21 04:00:00 6.4 12 Nordeste 33 Nordeste 0 -- -- 67
2020-01-21 03:00:00 6.1 18 Nordeste 27 Nordeste 0 -- -- 69
2020-01-21 02:00:00 6.4 15 Nordeste 29 Norte 0 -- -- 67
2020-01-21 01:00:00 4.9 8 Nordeste 18 Nordeste 0 -- -- 73
2020-01-21 00:00:00 5.5 12 Nordeste 22 Nordeste 0 -- -- 72
2020-01-20 23:00:00 6 10 Nordeste 17 Nordeste 0 -- -- 68
2020-01-20 22:00:00 5.8 12 Nordeste 18 Nordeste 0 -- -- 70
2020-01-20 21:00:00 6.5 12 Nordeste 28 Norte 0 -- -- 66
2020-01-20 20:00:00 6.7 18 Nordeste 30 Nordeste 0 -- -- 69
2020-01-20 19:00:00 7 20 Nordeste 54 Nordeste 0 -- -- 68
2020-01-20 18:00:00 8.2 33 Nordeste 50 Nordeste 0 -- -- 62
2020-01-20 17:00:00 10.2 26 Nordeste 51 Nordeste 0 -- -- 51
2020-01-20 16:00:00 9.4 22 Nordeste 55 Nordeste 0 -- -- 51
2020-01-20 15:00:00 9.9 31 Nordeste 54 Nordeste 0 -- -- 46
2020-01-20 14:00:00 11.6 31 Nordeste 52 Nordeste 0 -- -- 40
2020-01-20 13:00:00 10.2 28 Nordeste 50 Norte 0 -- -- 44
2020-01-20 12:00:00 8.8 35 Norte 50 Norte 0 -- -- 48
2020-01-20 11:00:00 6.7 27 Nordeste 39 Norte 0 -- -- 54
2020-01-20 10:00:00 4.6 21 Norte 40 Nordeste 0 -- -- 63
2020-01-20 09:00:00 4.3 32 Norte 42 Norte 0 -- -- 61
2020-01-20 08:00:00 4.8 30 Norte 39 Norte 0 -- -- 59
2020-01-20 07:00:00 4.6 21 Norte 30 Norte 0 -- -- 62
2020-01-20 06:00:00 5 20 Norte 35 Norte 0 -- -- 62
2020-01-20 05:00:00 5.5 24 Norte 34 Norte 0 -- -- 59
2020-01-20 04:00:00 5.4 23 Norte 30 Norte 0 -- -- 59
2020-01-20 03:00:00 5.2 17 Norte 32 Norte 0 -- -- 60
2020-01-20 02:00:00 5.2 21 Norte 37 Nordeste 0 -- -- 57
2020-01-20 01:00:00 5.7 29 Norte 45 Norte 0 -- -- 54
2020-01-20 00:00:00 5.8 23 Norte 45 Norte 0 -- -- 56
2020-01-19 23:00:00 6.5 34 Nordeste 57 Norte 0 -- -- 54
2020-01-19 22:00:00 7.3 34 Norte 52 Norte 0 -- -- 55
2020-01-19 21:00:00 8.4 37 Norte 55 Norte 0 -- -- 52
2020-01-19 20:00:00 9.4 38 Norte 56 Norte 0 -- -- 51
2020-01-19 19:00:00 10.3 36 Norte 50 Norte 0 -- -- 49
2020-01-19 18:00:00 11.6 31 Norte 57 Norte 0 -- -- 50
2020-01-19 17:00:00 12.3 36 Nordeste 63 Norte 0 -- -- 45
2020-01-19 16:00:00 14.1 44 Nordeste 71 Norte 0 -- -- 46
2020-01-19 15:00:00 14.2 53 Norte 86 Norte 0 -- -- 47
2020-01-19 14:00:00 14.3 48 Norte 71 Norte 0 -- -- 48
2020-01-19 13:00:00 13.8 48 Norte 67 Nordeste 0 -- -- 59
2020-01-19 12:00:00 13.4 17 Norte 31 Norte 0 -- -- 67
2020-01-19 11:00:00 10.8 14 Norte 30 Norte 0 -- -- 81
2020-01-19 10:00:00 8.7 15 Noroeste 25 Noroeste 0 -- -- 89
2020-01-19 09:00:00 8.2 12 Noroeste 26 Noroeste 0 -- -- 93
2020-01-19 08:00:00 8.5 10 Noroeste 25 Noroeste 0 -- -- 93
2020-01-19 07:00:00 9.5 17 Noroeste 28 Oeste 0 -- -- 91
2020-01-19 06:00:00 9.6 16 Noroeste 33 Noroeste 0 -- -- 90
2020-01-19 05:00:00 9.4 9 Oeste 33 Noroeste 0 -- -- 89
2020-01-19 04:00:00 9.6 14 Oeste 30 Noroeste 0 -- -- 87
2020-01-19 03:00:00 9.2 17 Oeste 24 Noroeste 0 -- -- 88
2020-01-19 02:00:00 9.5 10 Oeste 26 Oeste 0 -- -- 84
2020-01-19 01:00:00 10.7 10 Oeste 21 Oeste 0 -- -- 80
2020-01-19 00:00:00 11.8 16 Oeste 25 Oeste 0 -- -- 84
2020-01-18 23:00:00 12.4 11 Oeste 25 Oeste 0 -- -- 81
2020-01-18 22:00:00 12.9 17 Oeste 34 Noroeste 0 -- -- 76
2020-01-18 21:00:00 12.9 16 Oeste 35 Oeste 0 -- -- 84
2020-01-18 20:00:00 13.5 14 Oeste 31 Oeste 0 -- -- 84
2020-01-18 19:00:00 14.8 15 Oeste 30 Oeste 0 -- -- 82
2020-01-18 18:00:00 16.4 12 Oeste 30 Oeste 0 -- -- 76
2020-01-18 17:00:00 17.9 19 Oeste 32 Oeste 0 -- -- 73
2020-01-18 16:00:00 18 15 Oeste 31 Oeste 0 -- -- 75
2020-01-18 15:00:00 18.4 11 Oeste 21 Sudoeste 0 -- -- 86
2020-01-18 14:00:00 16.5 11 Sudoeste 21 Sudoeste 0 -- -- 93
2020-01-18 13:00:00 14.4 8 Sudoeste 22 Sudoeste 0.4 -- -- 99
2020-01-18 12:00:00 13.6 11 Sudoeste 28 Sudoeste 0.2 -- -- 99
2020-01-18 11:00:00 13.3 16 Sudoeste 28 Sudoeste 0.6 -- -- 99
2020-01-18 10:00:00 12.6 14 Sudoeste 39 Sur 0.8 -- -- 99
2020-01-18 09:00:00 12.3 15 Sur 30 Sur 1.6 -- -- 99
2020-01-18 08:00:00 11.7 13 Sur 22 Sudoeste 1.6 -- -- 100
2020-01-18 07:00:00 10.7 6 Sur 10 Sudoeste 0.6 -- -- 100
2020-01-18 06:00:00 9.6 3 Sur 5 Sur 1.2 -- -- 99
2020-01-18 05:00:00 9.5 2 Sudeste 5 Noroeste 0.4 -- -- 98
2020-01-18 04:00:00 9.6 0 Calma 6 Este 0 -- -- 98
2020-01-18 03:00:00 9.4 3 Este 6 Este 0 -- -- 98
2020-01-18 02:00:00 9.4 2 Norte 5 Nordeste 0 -- -- 98
2020-01-18 01:00:00 9.4 0 Calma 3 Este 0 -- -- 98
2020-01-18 00:00:00 9.1 2 Noroeste 3 Noroeste 0 -- -- 97
2020-01-17 23:00:00 9.3 0 Calma 4 Sudeste 0 -- -- 97
2020-01-17 22:00:00 9.1 0 Calma 4 Sudoeste 0 -- -- 95
2020-01-17 21:00:00 10.2 0 Calma 7 Sudoeste 0 -- -- 94
2020-01-17 20:00:00 10.6 3 Sur 5 Sur 0 -- -- 92
2020-01-17 19:00:00 11.7 0 Calma 5 Sudoeste 0 -- -- 88
2020-01-17 18:00:00 13.9 3 Sudoeste 4 Sudoeste 0 -- -- 83
2020-01-17 17:00:00 14.6 3 Sudeste 7 Sudeste 0 -- -- 79
2020-01-17 16:00:00 14.8 4 Sur 13 Sur 0 -- -- 77
2020-01-17 15:00:00 15.4 4 Sudoeste 15 Sur 0 -- -- 75
2020-01-17 14:00:00 14.6 5 Sur 11 Sur 0 -- -- 82
2020-01-17 13:00:00 12.1 3 Noroeste 12 Oeste 0 -- -- 100
2020-01-17 12:00:00 11.4 5 Oeste 16 Oeste 0 -- -- 100
2020-01-17 11:00:00 10.6 8 Sudoeste 15 Sudoeste 0 -- -- 100
2020-01-17 10:00:00 10 5 Sudoeste 12 Sudoeste 0 -- -- 100
2020-01-17 09:00:00 9.8 5 Sudoeste 13 Sudoeste 0 -- -- 100
2020-01-17 08:00:00 9.4 4 Sudoeste 9 Norte 0 -- -- 100
2020-01-17 07:00:00 10 5 Noroeste 12 Oeste 0 -- -- 99
2020-01-17 06:00:00 10.5 2 Oeste 20 Sudoeste 0 -- -- 100
2020-01-17 05:00:00 10.4 6 Sudoeste 13 Oeste 0 -- -- 99
2020-01-17 04:00:00 10.5 6 Oeste 14 Sudoeste 0 -- -- 99
2020-01-17 03:00:00 10.1 7 Sudoeste 12 Oeste 0 -- -- 99
2020-01-17 02:00:00 8.7 2 Sudoeste 7 Sudoeste 0 -- -- 95
2020-01-17 01:00:00 10.6 4 Sur 9 Sudoeste 0 -- -- 95
2020-01-17 00:00:00 11.6 6 Sudoeste 14 Sudoeste 0 -- -- 94
2020-01-16 23:00:00 11.8 10 Sur 21 Sudoeste 1 -- -- 93
2020-01-16 22:00:00 12.5 13 Oeste 32 Sudoeste 1.4 -- -- 89
2020-01-16 21:00:00 13.5 21 Sur 38 Sur 0 -- -- 74
2020-01-16 20:00:00 13.4 10 Sur 19 Sudoeste 0 -- -- 68
2020-01-16 19:00:00 14.4 12 Sur 24 Sur 0 -- -- 63
2020-01-16 18:00:00 15.6 15 Sur 34 Sur 0 -- -- 62
2020-01-16 17:00:00 16.8 17 Sur 37 Sudoeste 0 -- -- 55
2020-01-16 16:00:00 17.3 17 Sur 34 Sur 0 -- -- 54
2020-01-16 15:00:00 18 15 Sudoeste 33 Sur 0 -- -- 51
2020-01-16 14:00:00 17.2 20 Sur 36 Sur 0 -- -- 60
2020-01-16 13:00:00 15.6 13 Sudoeste 26 Sudoeste 0 -- -- 72
2020-01-16 12:00:00 13.2 6 Sudeste 11 Sudeste 0 -- -- 79
2020-01-16 11:00:00 12 3 Sur 6 Sur 0 -- -- 85
2020-01-16 10:00:00 9.9 3 Sudeste 14 Sudeste 0 -- -- 92
2020-01-16 09:00:00 10.4 5 Sudeste 9 Sudeste 0 -- -- 91
2020-01-16 08:00:00 10.6 4 Sudeste 8 Sudeste 0 -- -- 93
2020-01-16 07:00:00 11.1 5 Sur 12 Sudeste 0 -- -- 94
2020-01-16 06:00:00 10.6 3 Sudeste 6 Este 0 -- -- 98
2020-01-16 05:00:00 10.7 3 Sudeste 7 Noroeste 0 -- -- 99
2020-01-16 04:00:00 9.8 5 Oeste 9 Oeste 0 -- -- 98
2020-01-16 03:00:00 9.1 3 Sudoeste 6 Sudoeste 0 -- -- 94
2020-01-16 02:00:00 10.6 3 Oeste 7 Sudoeste 0 -- -- 94
2020-01-16 01:00:00 11.8 2 Sudeste 8 Sur 0 -- -- 94
2020-01-16 00:00:00 11.4 3 Sur 9 Sur 0 -- -- 95
2020-01-15 23:00:00 11.2 0 Calma 6 Sudeste 0 -- -- 94
2020-01-15 22:00:00 11.9 2 Sur 8 Sudeste 0 -- -- 91
2020-01-15 21:00:00 12.6 4 Sudeste 8 Sudeste 0 -- -- 89
2020-01-15 20:00:00 13.6 4 Sudeste 12 Sudoeste 0 -- -- 86
2020-01-15 19:00:00 14.7 5 Sur 13 Sur 0 -- -- 83
2020-01-15 18:00:00 15.9 11 Sur 25 Sur 0 -- -- 79
2020-01-15 17:00:00 17.4 16 Sur 30 Sur 0 -- -- 73
2020-01-15 16:00:00 18 14 Sur 30 Sur 0 -- -- 71
2020-01-15 15:00:00 17.3 17 Sudoeste 30 Sur 0 -- -- 71
2020-01-15 14:00:00 16.6 18 Sudoeste 36 Sudoeste 0 -- -- 76
2020-01-15 13:00:00 15.9 18 Sur 40 Sur 0 -- -- 79
2020-01-15 12:00:00 14.8 14 Sudoeste 28 Sudoeste 0 -- -- 82
2020-01-15 11:00:00 13.2 10 Sur 26 Sudoeste 0 -- -- 87
2020-01-15 10:00:00 12.2 6 Sudoeste 22 Sudoeste 0 -- -- 86
2020-01-15 09:00:00 11.6 14 Sur 28 Sur 0 -- -- 86
2020-01-15 08:00:00 11.1 9 Sur 26 Sudoeste 0 -- -- 86
2020-01-15 07:00:00 11.1 13 Sur 26 Sur 0 -- -- 86
2020-01-15 06:00:00 9.1 4 Sudoeste 10 Sur 0 -- -- 90
2020-01-15 05:00:00 8.6 3 Sudeste 10 Sudeste 0 -- -- 88
2020-01-15 04:00:00 7.5 4 Sudeste 9 Sudeste 0 -- -- 97
2020-01-15 03:00:00 6.2 4 Nordeste 5 Nordeste 0 -- -- 94
2020-01-15 02:00:00 8.3 3 Sudoeste 21 Sudoeste 0 -- -- 89
2020-01-15 01:00:00 9.8 14 Sur 23 Sur 0 -- -- 86
2020-01-15 00:00:00 10.1 11 Sur 24 Sur 0 -- -- 85
2020-01-14 23:00:00 10.3 17 Sur 28 Sur 0 -- -- 84
2020-01-14 22:00:00 10.3 9 Sur 20 Sur 0 -- -- 85
2020-01-14 21:00:00 10.9 9 Sur 26 Sudoeste 0 -- -- 82
2020-01-14 20:00:00 11.2 14 Sur 25 Sur 0 -- -- 81
2020-01-14 19:00:00 11.5 8 Sur 15 Sudoeste 0 -- -- 80
2020-01-14 18:00:00 11.7 4 Sudeste 9 Sudeste 0 -- -- 83
2020-01-14 17:00:00 11.6 4 Sudeste 12 Este 0 -- -- 85
2020-01-14 16:00:00 10.4 5 Sur 13 Sur 0 -- -- 87
2020-01-14 15:00:00 9.7 4 Sur 8 Sur 0 -- -- 78
2020-01-14 14:00:00 8.4 3 Sur 7 Sur 0 -- -- 78
2020-01-14 13:00:00 7.3 2 Norte 5 Nordeste 0 -- -- 84
2020-01-14 12:00:00 5.8 0 Calma 8 Sudeste 0 -- -- 84
2020-01-14 11:00:00 4.5 2 Este 9 Este 0 -- -- 90
2020-01-14 10:00:00 3 2 Nordeste 6 Este 0 -- -- 98
2020-01-14 09:00:00 0.6 2 Norte 7 Nordeste 0 -- -- 96
2020-01-14 08:00:00 1.3 0 Calma 9 Este 0 -- -- 95
2020-01-14 07:00:00 2.1 5 Este 9 Este 0 -- -- 97
2020-01-14 06:00:00 1.4 4 Este 10 Este 0 -- -- 98
2020-01-14 05:00:00 0.6 0 Calma 6 Nordeste 0 -- -- 97
2020-01-14 04:00:00 1.3 3 Este 6 Este 0 -- -- 98
2020-01-14 03:00:00 0.7 0 Calma 6 Noroeste 0 -- -- 96
2020-01-14 02:00:00 1.5 0 Calma 8 Sudeste 0 -- -- 95
2020-01-14 01:00:00 2 6 Este 10 Este 0 -- -- 98
2020-01-14 00:00:00 1.2 3 Norte 12 Oeste 0 -- -- 95
2020-01-13 23:00:00 1.4 2 Nordeste 7 Sudeste 0 -- -- 92
2020-01-13 22:00:00 2.8 4 Sudeste 5 Norte 0 -- -- 93
2020-01-13 21:00:00 3.5 0 Calma 4 Oeste 0 -- -- 89
2020-01-13 20:00:00 4.9 0 Calma 5 Oeste 0 -- -- 85
2020-01-13 19:00:00 7.3 0 Calma 7 Sur 0 -- -- 75
2020-01-13 18:00:00 11.2 4 Sur 10 Sur 0 -- -- 65
2020-01-13 17:00:00 12.7 7 Sur 13 Sudoeste 0 -- -- 56
2020-01-13 16:00:00 12.6 5 Sur 13 Sur 0 -- -- 60
2020-01-13 15:00:00 12.3 6 Sur 13 Sur 0 -- -- 62
2020-01-13 14:00:00 9.8 0 Calma 6 Este 0 -- -- 68
2020-01-13 13:00:00 7.3 3 Nordeste 7 Norte 0 -- -- 79
2020-01-13 12:00:00 4.5 3 Nordeste 8 Nordeste 0 -- -- 87
2020-01-13 11:00:00 2.5 3 Nordeste 9 Nordeste 0 -- -- 99
2020-01-13 10:00:00 -1.1 0 Calma 5 Norte 0 -- -- 99
2020-01-13 09:00:00 -2.3 2 Norte 4 Nordeste 0 -- -- 97
2020-01-13 08:00:00 -2 2 Norte 4 Norte 0 -- -- 97
2020-01-13 07:00:00 -2.3 3 Norte 5 Norte 0 -- -- 97
2020-01-13 06:00:00 -1.8 3 Norte 5 Norte 0 -- -- 97
2020-01-13 05:00:00 -1.6 3 Nordeste 6 Norte 0 -- -- 96
2020-01-13 04:00:00 -0.8 0 Calma 4 Norte 0 -- -- 96
2020-01-13 03:00:00 -0.8 3 Norte 5 Norte 0 -- -- 96
2020-01-13 02:00:00 -0.3 0 Calma 5 Noroeste 0 -- -- 95
2020-01-13 01:00:00 0 0 Calma 3 Noroeste 0 -- -- 93
2020-01-13 00:00:00 1 0 Calma 6 Norte 0 -- -- 93
2020-01-12 23:00:00 1.4 0 Calma 3 Noroeste 0 -- -- 90
2020-01-12 22:00:00 2.6 0 Calma 4 Norte 0 -- -- 86
2020-01-12 21:00:00 4.2 2 Norte 4 Norte 0 -- -- 84
2020-01-12 20:00:00 5.1 0 Calma 3 Nordeste 0 -- -- 78
2020-01-12 19:00:00 7.7 3 Nordeste 4 Nordeste 0 -- -- 72
2020-01-12 18:00:00 12.1 2 Este 6 Sudeste 0 -- -- 57
2020-01-12 17:00:00 14.8 2 Nordeste 6 Este 0 -- -- 52
2020-01-12 16:00:00 15.3 0 Calma 9 Sudeste 0 -- -- 54
2020-01-12 15:00:00 14.3 3 Este 11 Nordeste 0 -- -- 57
2020-01-12 14:00:00 12.6 3 Nordeste 8 Nordeste 0 -- -- 66
2020-01-12 13:00:00 9.8 3 Nordeste 9 Nordeste 0 -- -- 73
2020-01-12 12:00:00 5.9 5 Nordeste 10 Nordeste 0 -- -- 87
2020-01-12 11:00:00 2.2 4 Nordeste 9 Este 0 -- -- 99
2020-01-12 10:00:00 -1 2 Norte 5 Norte 0 -- -- 98
2020-01-12 09:00:00 -1.7 4 Nordeste 5 Nordeste 0 -- -- 98
2020-01-12 08:00:00 -1.9 3 Nordeste 6 Nordeste 0 -- -- 97
2020-01-12 07:00:00 -1.7 3 Norte 5 Noroeste 0 -- -- 97
2020-01-12 06:00:00 -1.7 5 Noroeste 7 Noroeste 0 -- -- 95
2020-01-12 05:00:00 -0.8 0 Calma 5 Sudeste 0 -- -- 96
2020-01-12 04:00:00 -0.7 3 Nordeste 5 Norte 0 -- -- 95
2020-01-12 03:00:00 -0.2 0 Calma 5 Norte 0 -- -- 94
2020-01-12 02:00:00 0.5 4 Norte 7 Norte 0 -- -- 95
2020-01-12 01:00:00 0.7 5 Norte 9 Norte 0 -- -- 94
2020-01-12 00:00:00 1.3 2 Norte 3 Noroeste 0 -- -- 92
2020-01-11 23:00:00 3.3 3 Sudoeste 8 Sur 0 -- -- 87
2020-01-11 22:00:00 4.2 3 Norte 6 Norte 0 -- -- 87
2020-01-11 21:00:00 4.4 4 Norte 9 Norte 0 -- -- 86
2020-01-11 20:00:00 6 0 Calma 5 Norte 0 -- -- 79
2020-01-11 19:00:00 8.4 0 Calma 5 Nordeste 0 -- -- 70
2020-01-11 18:00:00 12.2 3 Nordeste 11 Este 0 -- -- 59
2020-01-11 17:00:00 14.3 4 Este 17 Este 0 -- -- 48
2020-01-11 16:00:00 14.6 7 Nordeste 18 Este 0 -- -- 49
2020-01-11 15:00:00 14 7 Este 19 Nordeste 0 -- -- 52
2020-01-11 14:00:00 12.8 8 Este 19 Nordeste 0 -- -- 53
2020-01-11 13:00:00 11.4 5 Nordeste 14 Este 0 -- -- 60
2020-01-11 12:00:00 8.3 4 Nordeste 10 Nordeste 0 -- -- 72
2020-01-11 11:00:00 4.8 4 Nordeste 8 Nordeste 0 -- -- 98
2020-01-11 10:00:00 0.2 2 Noroeste 3 Noroeste 0 -- -- 98
2020-01-11 09:00:00 -0.3 0 Calma 5 Sur 0 -- -- 96
2020-01-11 08:00:00 0.6 3 Sudoeste 5 Sur 0 -- -- 97
2020-01-11 07:00:00 -0.2 0 Calma 5 Norte 0 -- -- 96
2020-01-11 06:00:00 0 0 Calma 3 Noroeste 0 -- -- 94
2020-01-11 05:00:00 0.8 0 Calma 6 Norte 0 -- -- 96
2020-01-11 04:00:00 0.7 3 Norte 5 Norte 0 -- -- 95
2020-01-11 03:00:00 0.7 3 Nordeste 4 Noroeste 0 -- -- 92
2020-01-11 02:00:00 1.3 4 Noroeste 5 Noroeste 0 -- -- 91
2020-01-11 01:00:00 2 5 Norte 6 Noroeste 0 -- -- 92
2020-01-11 00:00:00 2.3 3 Nordeste 5 Norte 0 -- -- 91
2020-01-10 23:00:00 2.9 2 Norte 5 Norte 0 -- -- 88
2020-01-10 22:00:00 3.9 2 Norte 5 Norte 0 -- -- 86
2020-01-10 21:00:00 4.7 3 Norte 9 Norte 0 -- -- 84
2020-01-10 20:00:00 6.5 6 Norte 14 Norte 0 -- -- 79
2020-01-10 19:00:00 8.9 9 Norte 13 Nordeste 0 -- -- 74
2020-01-10 18:00:00 12 10 Norte 19 Norte 0 -- -- 64
2020-01-10 17:00:00 14.1 9 Nordeste 24 Nordeste 0 -- -- 61
2020-01-10 16:00:00 14.7 13 Nordeste 24 Norte 0 -- -- 60
2020-01-10 15:00:00 14.4 10 Nordeste 21 Nordeste 0 -- -- 61
2020-01-10 14:00:00 13.5 10 Nordeste 24 Nordeste 0 -- -- 63
2020-01-10 13:00:00 12.2 17 Nordeste 36 Nordeste 0 -- -- 62
2020-01-10 12:00:00 11 26 Norte 33 Norte 0 -- -- 66
2020-01-10 11:00:00 9 16 Norte 29 Norte 0 -- -- 76
2020-01-10 10:00:00 7 22 Norte 28 Norte 0 -- -- 81
2020-01-10 09:00:00 5.2 10 Norte 24 Noroeste 0 -- -- 82
2020-01-10 08:00:00 5.2 11 Norte 26 Noroeste 0 -- -- 85
2020-01-10 07:00:00 2.6 7 Noroeste 16 Noroeste 0 -- -- 92
2020-01-10 06:00:00 4.2 8 Noroeste 18 Noroeste 0 -- -- 91
2020-01-10 05:00:00 4.9 8 Noroeste 15 Noroeste 0 -- -- 95
2020-01-10 04:00:00 5.4 7 Noroeste 19 Noroeste 0 -- -- 90
2020-01-10 03:00:00 7.4 10 Noroeste 20 Noroeste 0 -- -- 91
2020-01-10 02:00:00 7.8 11 Noroeste 19 Noroeste 0 -- -- 93
2020-01-10 01:00:00 8.2 8 Noroeste 19 Oeste 0 -- -- 94
2020-01-10 00:00:00 9.2 13 Noroeste 21 Noroeste 0 -- -- 92
2020-01-09 23:00:00 10.7 4 Sudoeste 12 Oeste 0 -- -- 92
2020-01-09 22:00:00 11.7 8 Oeste 19 Oeste 0 -- -- 94
2020-01-09 21:00:00 10.4 6 Oeste 10 Sudoeste 0 -- -- 93
2020-01-09 20:00:00 11.1 4 Sur 10 Sur 0 -- -- 87
2020-01-09 19:00:00 11.7 4 Sudoeste 10 Sudoeste 0 -- -- 82
2020-01-09 18:00:00 13.2 3 Sudoeste 7 Sur 0 -- -- 75
2020-01-09 17:00:00 14.8 4 Sur 11 Sur 0 -- -- 64
2020-01-09 16:00:00 14.5 6 Sur 11 Sudoeste 0 -- -- 64
2020-01-09 15:00:00 13.4 3 Sur 8 Sur 0 -- -- 65
2020-01-09 14:00:00 11.6 5 Sudeste 9 Sudeste 0 -- -- 72
2020-01-09 13:00:00 9.2 4 Sur 8 Sur 0 -- -- 82
2020-01-09 12:00:00 5.5 2 Sudoeste 5 Sudoeste 0 -- -- 99
2020-01-09 11:00:00 2.9 3 Sur 4 Sur 0 -- -- 100
2020-01-09 10:00:00 1.5 0 Calma 3 Sur 0 -- -- 100
2020-01-09 09:00:00 0.1 0 Calma 3 Sudeste 0 -- -- 99
2020-01-09 08:00:00 -0.2 0 Calma 2 Nordeste 0 -- -- 99
2020-01-09 07:00:00 0 0 Calma 4 Noroeste 0 -- -- 99
2020-01-09 06:00:00 0.3 0 Calma 4 Sudeste 0 -- -- 99
2020-01-09 05:00:00 0.3 3 Este 5 Nordeste 0 -- -- 99
2020-01-09 04:00:00 0.3 0 Calma 3 Norte 0 -- -- 98
2020-01-09 03:00:00 0.6 3 Norte 5 Norte 0 -- -- 98
2020-01-09 02:00:00 1.5 0 Calma 4 Norte 0 -- -- 98
2020-01-09 01:00:00 1.3 0 Calma 3 Sudeste 0 -- -- 96
2020-01-09 00:00:00 2.6 3 Sudeste 4 Sudeste 0 -- -- 97
2020-01-08 23:00:00 3 3 Oeste 6 Sur 0 -- -- 93
2020-01-08 22:00:00 4 0 Calma 3 Norte 0 -- -- 93
2020-01-08 21:00:00 5.3 2 Norte 6 Noroeste 0 -- -- 92
2020-01-08 20:00:00 5.9 3 Noroeste 5 Noroeste 0 -- -- 87
2020-01-08 19:00:00 8.4 0 Calma 5 Este 0 -- -- 78
2020-01-08 18:00:00 12.1 2 Sudeste 4 Sudeste 0 -- -- 72
2020-01-08 17:00:00 14.8 2 Nordeste 5 Norte 0 -- -- 58
2020-01-08 16:00:00 14.2 2 Norte 7 Nordeste 0 -- -- 63
2020-01-08 15:00:00 13.2 4 Norte 8 Norte 0 -- -- 69
2020-01-08 14:00:00 11.3 0 Calma 5 Norte 0 -- -- 77
2020-01-08 13:00:00 7.4 4 Norte 6 Norte 0 -- -- 99
2020-01-08 12:00:00 4.4 3 Sudeste 8 Nordeste 0 -- -- 100
2020-01-08 11:00:00 2.4 2 Nordeste 6 Nordeste 0 -- -- 100
2020-01-08 10:00:00 1.2 5 Nordeste 8 Nordeste 0 -- -- 100
2020-01-08 09:00:00 0.8 4 Nordeste 6 Nordeste 0 -- -- 99
2020-01-08 08:00:00 -0.3 4 Nordeste 8 Nordeste 0 -- -- 99
2020-01-08 07:00:00 -0.3 2 Nordeste 4 Nordeste 0 -- -- 98
2020-01-08 06:00:00 0.3 0 Calma 3 Noroeste 0 -- -- 98
2020-01-08 05:00:00 0.4 0 Calma 5 Norte 0 -- -- 98
2020-01-08 04:00:00 0.6 2 Nordeste 3 Nordeste 0 -- -- 98
2020-01-08 03:00:00 1.2 0 Calma 6 Noroeste 0 -- -- 98
2020-01-08 02:00:00 1.2 4 Norte 6 Norte 0 -- -- 97
2020-01-08 01:00:00 1.9 0 Calma 4 Norte 0 -- -- 96
2020-01-08 00:00:00 2.7 0 Calma 4 Sur 0 -- -- 94
2020-01-07 23:00:00 3.7 0 Calma 2 Noroeste 0 -- -- 94
2020-01-07 22:00:00 4.7 0 Calma 5 Norte 0 -- -- 93
2020-01-07 21:00:00 5.5 0 Calma 5 Norte 0 -- -- 88
2020-01-07 20:00:00 6.9 4 Norte 7 Noroeste 0 -- -- 89
2020-01-07 19:00:00 8.9 0 Calma 3 Nordeste 0 -- -- 80
2020-01-07 18:00:00 13.2 3 Nordeste 6 Nordeste 0 -- -- 73
2020-01-07 17:00:00 15.4 4 Nordeste 8 Nordeste 0 -- -- 64
2020-01-07 16:00:00 15.5 3 Este 10 Este 0 -- -- 61
2020-01-07 15:00:00 14.7 4 Este 10 Nordeste 0 -- -- 67
2020-01-07 14:00:00 14 4 Nordeste 10 Nordeste 0 -- -- 70
2020-01-07 13:00:00 10.1 5 Nordeste 10 Nordeste 0 -- -- 85
2020-01-07 12:00:00 5.7 5 Nordeste 10 Nordeste 0 -- -- 100
2020-01-07 11:00:00 3 3 Norte 6 Nordeste 0 -- -- 100
2020-01-07 10:00:00 2 3 Nordeste 7 Nordeste 0 -- -- 100
2020-01-07 09:00:00 1.3 4 Nordeste 8 Este 0 -- -- 99
2020-01-07 08:00:00 0.9 2 Nordeste 6 Norte 0 -- -- 99
2020-01-07 07:00:00 0.7 2 Nordeste 5 Este 0 -- -- 99
2020-01-07 06:00:00 0.2 4 Nordeste 5 Norte 0 -- -- 98
2020-01-07 05:00:00 0.3 2 Nordeste 4 Este 0 -- -- 98
2020-01-07 04:00:00 0.3 3 Norte 4 Norte 0 -- -- 97
2020-01-07 03:00:00 0.8 0 Calma 3 Nordeste 0 -- -- 97
2020-01-07 02:00:00 1.3 3 Norte 7 Norte 0 -- -- 96
2020-01-07 01:00:00 1.8 2 Sudoeste 3 Norte 0 -- -- 94
2020-01-07 00:00:00 2.4 0 Calma 3 Noroeste 0 -- -- 95
2020-01-06 23:00:00 3.1 0 Calma 2 Sur 0 -- -- 91
2020-01-06 22:00:00 4.1 0 Calma 4 Norte 0 -- -- 92
2020-01-06 21:00:00 5.6 2 Norte 6 Noroeste 0 -- -- 92
2020-01-06 20:00:00 6.6 4 Norte 7 Norte 0 -- -- 88
2020-01-06 19:00:00 8.7 0 Calma 4 Norte 0 -- -- 80
2020-01-06 18:00:00 12.5 2 Este 6 Nordeste 0 -- -- 73
2020-01-06 17:00:00 14.5 3 Nordeste 8 Nordeste 0 -- -- 64
2020-01-06 16:00:00 15.1 5 Nordeste 10 Nordeste 0 -- -- 64
2020-01-06 15:00:00 14 4 Norte 9 Este 0 -- -- 63
2020-01-06 14:00:00 12.5 4 Nordeste 10 Sudeste 0 -- -- 69
2020-01-06 13:00:00 10 3 Este 8 Nordeste 0 -- -- 78
2020-01-06 12:00:00 6.5 4 Nordeste 10 Nordeste 0 -- -- 99
2020-01-06 11:00:00 4 0 Calma 5 Sudeste 0 -- -- 100
2020-01-06 10:00:00 2 4 Sudeste 9 Este 0 -- -- 100